createdAt,value
2022-10-15T00:01:50.862Z,2.73
2022-10-15T00:04:19.486Z,2.27
2022-10-15T00:06:47.936Z,3.90
2022-10-15T00:09:17.736Z,4.30
2022-10-15T00:11:46.356Z,2.37
2022-10-15T00:14:14.837Z,4.37
2022-10-15T00:16:43.246Z,2.43
2022-10-15T00:19:12.276Z,4.20
2022-10-15T00:21:40.777Z,4.87
2022-10-15T00:24:09.552Z,3.13
2022-10-15T00:26:39.544Z,5.83
2022-10-15T00:29:08.400Z,4.17
2022-10-15T00:31:37.314Z,5.20
2022-10-15T00:34:07.335Z,4.30
2022-10-15T00:36:36.746Z,4.60
2022-10-15T00:39:06.089Z,4.00
2022-10-15T00:41:35.744Z,3.93
2022-10-15T00:44:25.611Z,4.43
2022-10-15T00:46:55.392Z,3.77
2022-10-15T00:49:25.798Z,4.67
2022-10-15T00:51:56.443Z,4.63
2022-10-15T00:54:25.134Z,4.80
2022-10-15T00:56:54.437Z,2.03
2022-10-15T00:59:25.542Z,5.00
2022-10-15T01:01:54.804Z,3.70
2022-10-15T01:04:24.065Z,3.77
2022-10-15T01:06:52.551Z,3.93
2022-10-15T01:09:21.024Z,6.40
2022-10-15T01:11:50.764Z,2.30
2022-10-15T01:14:29.359Z,4.50
2022-10-15T01:17:02.195Z,2.27
2022-10-15T01:19:38.915Z,4.43
2022-10-15T01:22:09.060Z,2.43
2022-10-15T01:24:44.310Z,4.97
2022-10-15T01:27:36.644Z,4.67
2022-10-15T01:30:26.259Z,3.40
2022-10-15T01:33:05.025Z,2.83
2022-10-15T01:35:39.710Z,1.37
2022-10-15T01:38:11.789Z,2.23
2022-10-15T01:40:46.361Z,4.10
2022-10-15T01:43:17.117Z,2.67
2022-10-15T01:46:05.522Z,1.33
2022-10-15T01:48:44.856Z,2.63
2022-10-15T01:51:14.949Z,2.23
2022-10-15T01:53:44.178Z,2.13
2022-10-15T01:56:14.797Z,1.87
2022-10-15T01:58:44.935Z,2.07
2022-10-15T02:01:13.439Z,0.80
2022-10-15T02:03:47.666Z,1.20
2022-10-15T02:06:19.391Z,1.37
2022-10-15T02:08:54.416Z,0.83
2022-10-15T02:11:23.010Z,0.80
2022-10-15T02:13:56.404Z,1.27
2022-10-15T02:16:28.562Z,1.13
2022-10-15T02:19:06.494Z,0.80
2022-10-15T02:21:39.483Z,0.30
2022-10-15T02:24:10.903Z,0.80
2022-10-15T02:26:40.141Z,1.90
2022-10-15T02:29:12.217Z,1.77
2022-10-15T02:31:43.436Z,0.80
2022-10-15T02:34:15.039Z,0.77
2022-10-15T02:36:44.340Z,0.90
2022-10-15T02:39:14.384Z,1.27
2022-10-15T02:41:42.856Z,2.50
2022-10-15T02:44:14.455Z,2.57
2022-10-15T02:46:42.916Z,1.07
2022-10-15T02:49:13.963Z,0.60
2022-10-15T02:51:42.742Z,3.90
2022-10-15T02:54:11.179Z,1.40
2022-10-15T02:56:39.918Z,0.60
2022-10-15T02:59:09.147Z,0.70
2022-10-15T03:01:37.709Z,0.70
2022-10-15T03:04:07.139Z,1.50
2022-10-15T03:06:37.278Z,0.57
2022-10-15T03:09:06.092Z,0.90
2022-10-15T03:11:34.936Z,1.10
2022-10-15T03:14:03.981Z,1.03
2022-10-15T03:16:36.226Z,0.87
2022-10-15T03:19:04.732Z,0.90
2022-10-15T03:21:33.162Z,0.90
2022-10-15T03:24:10.297Z,2.30
2022-10-15T03:26:38.778Z,1.43
2022-10-15T03:29:07.527Z,0.80
2022-10-15T03:31:42.067Z,0.97
2022-10-15T03:34:10.604Z,1.23
2022-10-15T03:36:38.988Z,0.77
2022-10-15T03:39:12.689Z,1.00
2022-10-15T03:41:41.699Z,1.43
2022-10-15T03:44:12.530Z,0.80
2022-10-15T03:46:46.157Z,0.73
2022-10-15T03:49:14.752Z,1.03
2022-10-15T03:51:44.246Z,1.60
2022-10-15T03:54:15.015Z,0.60
2022-10-15T03:56:49.908Z,1.00
2022-10-15T03:59:30.757Z,1.90
2022-10-15T04:02:02.284Z,0.60
2022-10-15T04:04:31.585Z,0.93
2022-10-15T04:07:00.802Z,1.07
2022-10-15T04:09:31.387Z,0.50
2022-10-15T04:12:20.401Z,4.43
2022-10-15T04:14:49.085Z,1.07
2022-10-15T04:17:17.930Z,1.97
2022-10-15T04:19:46.966Z,1.37
2022-10-15T04:22:16.973Z,0.77
2022-10-15T04:24:51.883Z,0.40
2022-10-15T04:27:28.435Z,2.67
2022-10-15T04:30:06.976Z,0.70
2022-10-15T04:32:35.995Z,0.70
2022-10-15T04:35:04.548Z,1.43
2022-10-15T04:37:49.311Z,0.77
2022-10-15T04:40:21.404Z,0.77
2022-10-15T04:42:50.980Z,2.03
2022-10-15T04:45:19.716Z,1.13
2022-10-15T04:47:48.357Z,0.90
2022-10-15T04:50:18.225Z,0.90
2022-10-15T04:53:05.181Z,1.40
2022-10-15T04:55:39.672Z,1.63
2022-10-15T04:58:08.161Z,0.60
2022-10-15T05:00:36.784Z,1.57
2022-10-15T05:03:22.800Z,1.37
2022-10-15T05:06:02.009Z,0.60
2022-10-15T05:08:30.901Z,1.30
2022-10-15T05:11:16.892Z,0.63
2022-10-15T05:13:46.014Z,1.33
2022-10-15T05:16:16.597Z,0.87
2022-10-15T05:18:46.019Z,0.77
2022-10-15T05:21:15.195Z,2.40
2022-10-15T05:23:45.562Z,2.00
2022-10-15T05:26:28.000Z,2.10
2022-10-15T05:28:57.869Z,1.33
2022-10-15T05:31:30.346Z,2.10
2022-10-15T05:34:09.371Z,1.50
2022-10-15T05:36:47.820Z,1.30
2022-10-15T05:39:17.593Z,0.40
2022-10-15T05:41:49.450Z,0.97
2022-10-15T05:44:18.054Z,1.83
2022-10-15T05:46:46.480Z,0.40
2022-10-15T05:49:21.604Z,1.80
2022-10-15T05:52:05.068Z,0.90
2022-10-15T05:55:02.500Z,3.63
2022-10-15T05:57:34.925Z,0.87
2022-10-15T06:00:06.615Z,0.90
2022-10-15T06:02:40.397Z,0.53
2022-10-15T06:05:09.287Z,2.43
2022-10-15T06:07:38.180Z,1.33
2022-10-15T06:10:06.991Z,0.80
2022-10-15T06:12:38.330Z,1.53
2022-10-15T06:15:07.207Z,2.67
2022-10-15T06:17:35.610Z,4.87
2022-10-15T06:20:04.087Z,0.50
2022-10-15T06:22:34.707Z,1.40
2022-10-15T06:25:03.172Z,1.37
2022-10-15T06:27:33.701Z,1.87
2022-10-15T06:30:06.411Z,1.70
2022-10-15T06:32:35.178Z,2.60
2022-10-15T06:35:03.600Z,1.57
2022-10-15T06:37:32.233Z,1.23
2022-10-15T06:40:00.887Z,0.50
2022-10-15T06:42:29.401Z,1.60
2022-10-15T06:44:58.300Z,0.53
2022-10-15T06:47:28.057Z,0.80
2022-10-15T06:49:56.439Z,3.90
2022-10-15T06:52:25.271Z,0.50
2022-10-15T06:54:53.702Z,0.60
2022-10-15T06:57:25.536Z,0.43
2022-10-15T06:59:54.377Z,2.57
2022-10-15T07:02:23.201Z,2.83
2022-10-15T07:04:53.331Z,2.30
2022-10-15T07:07:22.144Z,0.53
2022-10-15T07:09:53.451Z,0.83
2022-10-15T07:12:22.833Z,0.60
2022-10-15T07:14:51.527Z,1.13
2022-10-15T07:17:20.135Z,1.63
2022-10-15T07:19:48.601Z,1.63
2022-10-15T07:22:18.357Z,0.30
2022-10-15T07:24:46.788Z,2.03
2022-10-15T07:27:19.283Z,1.13
2022-10-15T07:29:48.298Z,3.93
2022-10-15T07:32:16.732Z,1.70
2022-10-15T07:34:45.167Z,0.40
2022-10-15T07:37:13.591Z,2.00
2022-10-15T07:39:43.554Z,0.70
2022-10-15T07:44:41.512Z,0.87
2022-10-15T07:47:11.816Z,2.43
2022-10-15T07:49:40.273Z,0.43
2022-10-15T07:52:09.499Z,0.50
2022-10-15T07:54:37.949Z,0.40
2022-10-15T07:57:08.075Z,0.73
2022-10-15T07:59:36.578Z,2.17
2022-10-15T08:02:05.000Z,0.50
2022-10-15T08:04:35.186Z,1.63
2022-10-15T08:07:05.811Z,2.17
2022-10-15T08:09:36.591Z,0.40
2022-10-15T08:12:06.798Z,1.60
2022-10-15T08:14:36.752Z,1.40
2022-10-15T08:17:05.805Z,1.07
2022-10-15T08:19:35.099Z,1.30
2022-10-15T08:22:03.948Z,6.10
2022-10-15T08:24:32.371Z,1.33
2022-10-15T08:27:00.792Z,2.43
2022-10-15T08:29:29.560Z,0.87
2022-10-15T08:31:59.364Z,0.40
2022-10-15T08:34:28.152Z,1.30
2022-10-15T08:36:56.573Z,2.77
2022-10-15T08:39:24.956Z,0.93
2022-10-15T08:41:54.998Z,4.40
2022-10-15T08:44:25.478Z,7.27
2022-10-15T08:46:55.956Z,0.93
2022-10-15T08:49:30.835Z,1.27
2022-10-15T08:52:05.342Z,1.33
2022-10-15T08:54:35.547Z,1.00
2022-10-15T08:57:09.958Z,0.60
2022-10-15T08:59:40.466Z,0.83
2022-10-15T09:02:14.411Z,0.30
2022-10-15T09:04:49.939Z,0.43
2022-10-15T09:07:22.874Z,0.73
2022-10-15T09:09:53.219Z,0.70
2022-10-15T09:12:30.584Z,1.40
2022-10-15T09:14:59.531Z,0.60
2022-10-15T09:17:33.000Z,0.50
2022-10-15T09:20:05.227Z,0.57
2022-10-15T09:22:35.542Z,1.27
2022-10-15T09:25:15.667Z,0.83
2022-10-15T09:27:44.406Z,0.30
2022-10-15T09:30:20.218Z,1.80
2022-10-15T09:32:53.491Z,0.57
2022-10-15T09:35:28.571Z,3.07
2022-10-15T09:38:05.728Z,1.57
2022-10-15T09:40:46.305Z,2.10
2022-10-15T09:43:16.144Z,2.30
2022-10-15T09:45:44.657Z,1.67
2022-10-15T09:48:16.999Z,1.57
2022-10-15T09:50:51.636Z,8.50
2022-10-15T09:53:28.228Z,1.25
2022-10-15T09:56:03.814Z,3.80
2022-10-15T09:58:35.609Z,1.30
2022-10-15T10:01:05.319Z,3.05
2022-10-15T10:03:37.129Z,1.42
2022-10-15T10:06:08.800Z,2.00
2022-10-15T10:08:49.880Z,3.75
2022-10-15T10:11:20.341Z,1.40
2022-10-15T10:13:52.182Z,1.35
2022-10-15T10:16:21.462Z,2.47
2022-10-15T10:19:05.878Z,0.95
2022-10-15T10:21:36.389Z,2.83
2022-10-15T10:24:25.956Z,1.15
2022-10-15T10:26:54.428Z,1.25
2022-10-15T10:29:33.604Z,2.65
2022-10-15T10:32:11.057Z,1.85
2022-10-15T10:34:39.594Z,2.33
2022-10-15T10:37:11.396Z,1.10
2022-10-15T10:39:39.832Z,0.88
2022-10-15T10:42:09.158Z,3.95
2022-10-15T10:44:38.561Z,8.45
2022-10-15T10:47:14.245Z,1.63
2022-10-15T10:49:43.852Z,3.22
2022-10-15T10:52:27.517Z,2.30
2022-10-15T10:55:00.946Z,1.13
2022-10-15T10:57:44.737Z,2.35
2022-10-15T11:00:15.670Z,2.53
2022-10-15T11:02:47.085Z,2.00
2022-10-15T11:05:15.922Z,4.18
2022-10-15T11:07:51.436Z,4.65
2022-10-15T11:10:23.387Z,2.20
2022-10-15T11:13:07.329Z,2.13
2022-10-15T11:15:45.378Z,2.05
2022-10-15T11:18:29.627Z,1.70
2022-10-15T11:21:05.960Z,4.07
2022-10-15T11:23:45.303Z,3.60
2022-10-15T11:26:23.781Z,1.63
2022-10-15T11:28:59.528Z,4.88
2022-10-15T11:31:40.486Z,1.55
2022-10-15T11:34:27.861Z,4.03
2022-10-15T11:37:03.632Z,4.03
2022-10-15T11:39:37.718Z,1.60
2022-10-15T11:42:10.775Z,3.40
2022-10-15T11:44:47.599Z,1.48
2022-10-15T11:47:23.329Z,2.00
2022-10-15T11:49:58.754Z,3.25
2022-10-15T11:52:44.977Z,1.13
2022-10-15T11:55:19.713Z,2.45
2022-10-15T11:57:49.265Z,4.82
2022-10-15T12:00:27.127Z,3.92
2022-10-15T12:02:56.839Z,2.13
2022-10-15T12:05:28.685Z,4.05
2022-10-15T12:07:57.986Z,3.22
2022-10-15T12:10:37.222Z,4.22
2022-10-15T12:13:08.323Z,2.22
2022-10-15T12:15:41.868Z,2.88
2022-10-15T12:18:15.870Z,2.42
2022-10-15T12:20:45.640Z,2.67
2022-10-15T12:23:24.420Z,3.25
2022-10-15T12:25:54.420Z,3.17
2022-10-15T12:28:24.973Z,4.53
2022-10-15T12:31:00.961Z,1.48
2022-10-15T12:33:37.113Z,2.20
2022-10-15T12:36:10.032Z,1.45
2022-10-15T12:38:40.338Z,2.13
2022-10-15T12:41:10.869Z,3.00
2022-10-15T12:43:41.395Z,2.25
2022-10-15T12:46:11.065Z,4.03
2022-10-15T12:48:40.567Z,6.72
2022-10-15T12:51:39.456Z,3.55
2022-10-15T12:54:26.642Z,3.38
2022-10-15T12:56:56.435Z,4.55
2022-10-15T12:59:32.852Z,2.13
2022-10-15T13:02:03.725Z,4.32
2022-10-15T13:04:39.655Z,2.13
2022-10-15T13:07:10.735Z,1.95
2022-10-15T13:09:39.256Z,2.63
2022-10-15T13:12:23.188Z,3.72
2022-10-15T13:14:54.081Z,1.85
2022-10-15T13:17:23.260Z,3.58
2022-10-15T13:19:57.307Z,5.03
2022-10-15T13:22:27.242Z,1.13
2022-10-15T13:24:56.288Z,1.13
2022-10-15T13:27:27.045Z,2.22
2022-10-15T13:29:56.554Z,1.90
2022-10-15T13:32:25.922Z,2.13
2022-10-15T13:34:55.979Z,2.45
2022-10-15T13:37:29.468Z,3.55
2022-10-15T13:39:59.626Z,4.97
2022-10-15T13:42:31.306Z,2.58
2022-10-15T13:45:02.024Z,3.15
2022-10-15T13:47:32.380Z,1.67
2022-10-15T13:50:14.105Z,1.45
2022-10-15T13:52:43.022Z,4.82
2022-10-15T13:55:19.556Z,2.10
2022-10-15T13:57:51.092Z,3.10
2022-10-15T14:00:24.688Z,2.25
2022-10-15T14:03:15.432Z,2.97
2022-10-15T14:05:43.989Z,1.23
2022-10-15T14:08:20.224Z,2.60
2022-10-15T14:10:50.340Z,5.60
2022-10-15T14:13:20.442Z,4.05
2022-10-15T14:15:51.976Z,2.22
2022-10-15T14:18:27.954Z,2.95
2022-10-15T14:20:56.504Z,1.15
2022-10-15T14:23:26.318Z,1.63
2022-10-15T14:25:56.446Z,1.60
2022-10-15T14:28:26.534Z,4.88
2022-10-15T14:30:55.486Z,2.80
2022-10-15T14:33:34.367Z,2.65
2022-10-15T14:36:06.451Z,1.35
2022-10-15T14:38:34.875Z,0.85
2022-10-15T14:41:07.372Z,5.90
2022-10-15T14:43:38.976Z,2.13
2022-10-15T14:46:08.163Z,2.10
2022-10-15T14:48:38.125Z,2.05
2022-10-15T14:51:07.427Z,3.33
2022-10-15T14:53:37.853Z,1.85
2022-10-15T14:56:08.330Z,3.05
2022-10-15T14:58:39.868Z,3.05
2022-10-15T15:01:09.867Z,1.15
2022-10-15T15:03:42.566Z,1.98
2022-10-15T15:06:11.482Z,3.00
2022-10-15T15:08:39.877Z,3.38
2022-10-15T15:11:09.583Z,2.17
2022-10-15T15:13:40.692Z,4.22
2022-10-15T15:16:09.585Z,4.20
2022-10-15T15:18:38.021Z,1.20
2022-10-15T15:21:07.524Z,2.50
2022-10-15T15:23:36.385Z,2.30
2022-10-15T15:26:08.112Z,2.72
2022-10-15T15:28:36.646Z,1.52
2022-10-15T15:31:08.072Z,2.08
2022-10-15T15:33:36.904Z,2.83
2022-10-15T15:36:06.362Z,2.88
2022-10-15T15:41:13.515Z,4.60
2022-10-15T15:43:42.197Z,2.10
2022-10-15T15:46:12.279Z,2.45
2022-10-15T15:48:43.474Z,1.88
2022-10-15T15:51:16.689Z,2.67
2022-10-15T15:53:45.164Z,2.38
2022-10-15T15:56:13.667Z,2.13
2022-10-15T15:58:42.097Z,4.65
2022-10-15T16:01:12.965Z,1.50
2022-10-15T16:03:41.407Z,1.23
2022-10-15T16:06:10.336Z,4.68
2022-10-15T16:08:38.819Z,2.90
2022-10-15T16:11:07.968Z,2.42
2022-10-15T16:13:38.850Z,1.88
2022-10-15T16:16:07.720Z,4.63
2022-10-15T16:18:38.355Z,1.95
2022-10-15T16:21:06.971Z,3.30
2022-10-15T16:23:35.435Z,1.95
2022-10-15T16:26:03.913Z,3.17
2022-10-15T16:28:34.757Z,3.42
2022-10-15T16:31:15.354Z,3.03
2022-10-15T16:33:45.593Z,4.15
2022-10-15T16:36:14.642Z,3.38
2022-10-15T16:38:43.658Z,2.17
2022-10-15T16:41:12.947Z,3.35
2022-10-15T16:43:41.460Z,2.95
2022-10-15T16:46:09.838Z,3.28
2022-10-15T16:48:38.502Z,2.50
2022-10-15T16:51:09.388Z,3.20
2022-10-15T16:53:39.135Z,3.60
2022-10-15T16:56:08.659Z,3.47
2022-10-15T16:58:37.349Z,4.22
2022-10-15T17:01:06.924Z,4.28
2022-10-15T17:03:35.932Z,3.15
2022-10-15T17:06:06.119Z,3.70
2022-10-15T17:08:39.667Z,4.63
2022-10-15T17:11:10.580Z,2.70
2022-10-15T17:13:39.036Z,3.10
2022-10-15T17:16:11.964Z,3.75
2022-10-15T17:18:40.968Z,5.30
2022-10-15T17:21:10.231Z,4.38
2022-10-15T17:23:40.236Z,5.30
2022-10-15T17:26:09.407Z,4.93
2022-10-15T17:28:38.242Z,4.43
2022-10-15T17:31:07.424Z,4.00
2022-10-15T17:33:36.147Z,5.97
2022-10-15T17:36:08.707Z,4.00
2022-10-15T17:38:37.345Z,6.47
2022-10-15T17:41:09.367Z,4.03
2022-10-15T17:43:40.124Z,4.72
2022-10-15T17:46:10.373Z,4.63
2022-10-15T17:48:39.542Z,4.68
2022-10-15T17:51:08.824Z,5.72
2022-10-15T17:53:37.287Z,5.68
2022-10-15T17:56:13.246Z,6.18
2022-10-15T17:58:41.967Z,6.88
2022-10-15T18:01:14.809Z,8.35
2022-10-15T18:03:46.861Z,8.25
2022-10-15T18:06:19.848Z,5.03
2022-10-15T18:08:48.479Z,5.10
2022-10-15T18:11:20.113Z,8.27
2022-10-15T18:13:48.596Z,4.93
2022-10-15T18:16:17.225Z,3.63
2022-10-15T18:18:45.684Z,4.50
2022-10-15T18:21:15.966Z,4.32
2022-10-15T18:23:44.390Z,4.28
2022-10-15T18:26:18.625Z,6.10
2022-10-15T18:28:51.458Z,7.88
2022-10-15T18:31:20.182Z,3.72
2022-10-15T18:33:51.756Z,5.03
2022-10-15T18:36:21.552Z,6.05
2022-10-15T18:38:49.999Z,4.53
2022-10-15T18:41:19.318Z,6.97
2022-10-15T18:43:52.737Z,7.15
2022-10-15T18:46:21.337Z,5.88
2022-10-15T18:48:50.150Z,5.00
2022-10-15T18:51:25.180Z,6.60
2022-10-15T18:53:54.426Z,5.32
2022-10-15T18:56:23.326Z,7.43
2022-10-15T18:58:53.343Z,4.28
2022-10-15T19:01:26.813Z,6.55
2022-10-15T19:03:55.532Z,9.17
2022-10-15T19:06:25.182Z,5.70
2022-10-15T19:08:53.608Z,4.90
2022-10-15T19:11:22.143Z,5.00
2022-10-15T19:13:50.608Z,5.10
2022-10-15T19:16:20.628Z,5.77
2022-10-15T19:18:49.054Z,4.33
2022-10-15T19:21:17.524Z,3.27
2022-10-15T19:23:45.943Z,4.10
2022-10-15T19:26:16.828Z,5.47
2022-10-15T19:28:46.782Z,6.80
2022-10-15T19:31:21.572Z,3.97
2022-10-15T19:33:51.483Z,7.40
2022-10-15T19:36:24.471Z,7.23
2022-10-15T19:38:52.897Z,5.80
2022-10-15T19:41:21.392Z,6.27
2022-10-15T19:43:49.864Z,6.23
2022-10-15T19:46:18.305Z,8.97
2022-10-15T19:48:48.924Z,8.17
2022-10-15T19:51:20.863Z,6.40
2022-10-15T19:53:52.398Z,5.20
2022-10-15T19:56:20.817Z,5.43
2022-10-15T19:58:49.829Z,5.37
2022-10-15T20:01:18.295Z,6.83
2022-10-15T20:03:49.888Z,5.40
2022-10-15T20:06:18.460Z,6.27
2022-10-15T20:08:48.311Z,4.83
2022-10-15T20:11:18.990Z,5.47
2022-10-15T20:13:47.701Z,3.67
2022-10-15T20:16:18.457Z,4.90
2022-10-15T20:18:52.098Z,4.97
2022-10-15T20:21:20.592Z,6.67
2022-10-15T20:23:50.346Z,4.20
2022-10-15T20:26:18.776Z,5.67
2022-10-15T20:28:47.651Z,6.27
2022-10-15T20:31:17.739Z,8.63
2022-10-15T20:33:46.275Z,11.80
2022-10-15T20:36:18.929Z,8.17
2022-10-15T20:38:52.554Z,8.13
2022-10-15T20:41:21.573Z,8.47
2022-10-15T20:43:54.793Z,5.93
2022-10-15T20:46:25.897Z,5.83
2022-10-15T20:48:58.859Z,7.97
2022-10-15T20:51:28.839Z,6.70
2022-10-15T20:53:59.502Z,7.50
2022-10-15T20:56:28.055Z,4.30
2022-10-15T20:58:56.610Z,4.43
2022-10-15T21:01:25.139Z,4.18
2022-10-15T21:03:53.622Z,3.88
2022-10-15T21:06:22.114Z,3.65
2022-10-15T21:08:51.091Z,4.80
2022-10-15T21:11:20.969Z,4.07
2022-10-15T21:13:49.421Z,5.10
2022-10-15T21:16:17.909Z,5.77
2022-10-15T21:18:46.507Z,4.77
2022-10-15T21:21:15.825Z,7.43
2022-10-15T21:23:44.603Z,5.65
2022-10-15T21:26:13.937Z,5.93
2022-10-15T21:28:43.999Z,6.72
2022-10-15T21:31:13.435Z,4.67
2022-10-15T21:33:42.015Z,4.50
2022-10-15T21:36:11.078Z,7.07
2022-10-15T21:38:39.526Z,8.33
2022-10-15T21:41:07.960Z,4.27
2022-10-15T21:43:36.488Z,5.70
2022-10-15T21:46:07.121Z,5.90
2022-10-15T21:48:36.574Z,4.13
2022-10-15T21:51:05.045Z,4.53
2022-10-15T21:53:35.939Z,5.30
2022-10-15T21:56:08.012Z,4.70
2022-10-15T21:58:37.846Z,4.53
2022-10-15T22:01:14.515Z,6.37
2022-10-15T22:03:45.854Z,5.57
2022-10-15T22:06:14.743Z,4.43
2022-10-15T22:08:43.287Z,4.17
2022-10-15T22:11:12.722Z,6.83
2022-10-15T22:13:41.946Z,5.90
2022-10-15T22:16:12.330Z,4.70
2022-10-15T22:18:41.529Z,5.70
2022-10-15T22:21:15.130Z,9.93
2022-10-15T22:23:45.292Z,7.20
2022-10-15T22:26:13.891Z,4.70
2022-10-15T22:28:42.426Z,6.37
2022-10-15T22:31:13.727Z,7.10
2022-10-15T22:33:42.592Z,11.30
2022-10-15T22:36:16.104Z,10.83
2022-10-15T22:38:45.977Z,12.53
2022-10-15T22:41:14.849Z,7.97
2022-10-15T22:43:43.710Z,7.37
2022-10-15T22:46:13.676Z,9.33
2022-10-15T22:48:43.248Z,6.00
2022-10-15T22:51:12.330Z,10.03
2022-10-15T22:53:40.901Z,5.57
2022-10-15T22:56:10.446Z,6.33
2022-10-15T22:58:38.863Z,5.50
2022-10-15T23:01:08.565Z,5.57
2022-10-15T23:03:38.715Z,6.37
2022-10-15T23:06:07.419Z,7.53
2022-10-15T23:08:36.165Z,5.20
2022-10-15T23:11:09.621Z,6.43
2022-10-15T23:13:38.457Z,5.90
2022-10-15T23:16:07.698Z,4.90
2022-10-15T23:18:36.229Z,6.97
2022-10-15T23:21:07.298Z,7.03
2022-10-15T23:23:35.952Z,5.87
2022-10-15T23:26:04.424Z,6.17
2022-10-15T23:28:33.222Z,6.37
2022-10-15T23:31:01.821Z,6.93
2022-10-15T23:33:30.241Z,6.27
2022-10-15T23:36:02.419Z,6.47
2022-10-15T23:38:32.594Z,5.07
2022-10-15T23:41:01.688Z,6.43
2022-10-15T23:43:30.169Z,7.00
2022-10-15T23:45:58.951Z,4.50
2022-10-15T23:48:27.779Z,4.57
2022-10-15T23:51:00.820Z,3.53
2022-10-15T23:53:34.599Z,5.90
2022-10-15T23:56:03.757Z,3.57
2022-10-15T23:58:33.102Z,4.53
